Time;durP1;ratioP1;P1;durP2;ratioP2;P2;SDS_P1;SDS_P2;PMS_P1;PMS_P2;Temp;Humidity;BMP_temperature;BMP_pressure;BME280_temperature;BME280_humidity;BME280_pressure;Samples;Min_cycle;Max_cycle;Signal;HPM_P1;HPM_P2
2023/02/19 05:04:36;;;;;;;1.10;1.10;;;9.50;99.90;;;;;;5672238;23;20242;-64
2023/02/19 05:07:01;;;;;;;0.83;0.83;;;9.50;99.90;;;;;;4975657;28;20636;-64
2023/02/19 05:09:27;;;;;;;0.70;0.70;;;9.50;99.90;;;;;;4976294;28;20192;-64
2023/02/19 05:11:53;;;;;;;0.83;0.83;;;9.50;99.90;;;;;;4976149;28;20177;-64
2023/02/19 05:14:18;;;;;;;0.60;0.60;;;9.40;99.90;;;;;;4975595;28;20292;-64
2023/02/19 05:16:44;;;;;;;0.80;0.80;;;9.40;99.90;;;;;;4975880;28;20656;-64
2023/02/19 05:19:11;;;;;;;0.53;0.53;;;9.40;99.90;;;;;;4975914;28;20180;-65
2023/02/19 05:21:38;;;;;;;0.50;0.50;;;9.40;99.90;;;;;;4975873;28;20200;-65
2023/02/19 05:24:04;;;;;;;0.40;0.40;;;9.40;99.90;;;;;;4975558;28;20168;-64
2023/02/19 05:26:30;;;;;;;0.50;0.50;;;9.40;99.90;;;;;;4976074;28;20523;-64
2023/02/19 05:28:55;;;;;;;0.50;0.50;;;9.40;99.90;;;;;;4974587;28;20510;-64
2023/02/19 05:31:21;;;;;;;0.63;0.63;;;9.30;99.90;;;;;;4974376;28;20215;-64
2023/02/19 05:33:49;;;;;;;0.60;0.40;;;9.40;99.90;;;;;;4974907;28;20226;-65
2023/02/19 05:36:16;;;;;;;0.40;0.40;;;9.30;99.90;;;;;;4975034;28;20192;-63
2023/02/19 05:38:42;;;;;;;0.60;0.60;;;9.30;99.90;;;;;;4975595;28;20176;-63
2023/02/19 05:41:12;;;;;;;0.50;0.50;;;9.30;99.90;;;;;;4975408;28;20177;-65
2023/02/19 05:43:42;;;;;;;0.30;0.30;;;9.30;99.90;;;;;;4974807;28;20184;-63
2023/02/19 05:46:10;;;;;;;0.57;0.57;;;9.30;99.90;;;;;;4975340;28;20242;-63
2023/02/19 05:48:36;;;;;;;0.50;0.50;;;9.30;99.90;;;;;;4963523;28;20217;-65
2023/02/19 05:51:07;;;;;;;0.40;0.40;;;9.30;99.90;;;;;;4965462;28;20230;-64
2023/02/19 05:53:33;;;;;;;0.50;0.50;;;9.20;99.90;;;;;;4974733;28;20221;-64
2023/02/19 05:55:59;;;;;;;0.40;0.40;;;9.20;99.90;;;;;;4975267;28;20303;-65
2023/02/19 05:58:25;;;;;;;0.40;0.40;;;9.20;99.90;;;;;;4975074;28;20682;-64
2023/02/19 06:00:51;;;;;;;0.47;0.47;;;9.20;99.90;;;;;;4974389;28;20160;-64
2023/02/19 06:03:17;;;;;;;0.60;0.40;;;9.20;99.90;;;;;;4974500;28;20259;-63
2023/02/19 06:05:42;;;;;;;0.60;0.60;;;9.20;99.90;;;;;;4974796;28;20192;-63
2023/02/19 06:08:11;;;;;;;0.40;0.40;;;9.20;99.90;;;;;;4974827;28;20238;-65
2023/02/19 06:10:39;;;;;;;0.50;0.32;;;9.20;99.90;;;;;;4975027;28;20197;-64
2023/02/19 06:13:04;;;;;;;0.30;0.30;;;9.20;99.90;;;;;;4974473;28;20624;-63
2023/02/19 06:15:30;;;;;;;0.33;0.33;;;9.20;99.90;;;;;;4973394;28;20290;-65
2023/02/19 06:17:55;;;;;;;0.40;0.40;;;9.20;99.90;;;;;;4974779;28;20204;-65
2023/02/19 06:20:21;;;;;;;0.40;0.40;;;9.20;99.90;;;;;;4975142;28;20179;-64
2023/02/19 06:22:49;;;;;;;0.40;0.40;;;9.20;99.90;;;;;;4974424;28;20172;-67
2023/02/19 06:25:14;;;;;;;0.40;0.40;;;9.20;99.90;;;;;;4974809;28;20326;-63
2023/02/19 06:27:40;;;;;;;0.43;0.43;;;9.30;99.90;;;;;;4974826;28;20672;-64
2023/02/19 06:30:06;;;;;;;0.30;0.30;;;9.30;99.90;;;;;;4974845;28;20164;-63
2023/02/19 06:32:32;;;;;;;0.40;0.40;;;9.30;99.90;;;;;;4974636;28;20657;-64
2023/02/19 06:34:57;;;;;;;0.40;0.40;;;9.30;99.90;;;;;;4974143;28;20207;-64
2023/02/19 06:37:23;;;;;;;0.40;0.40;;;9.30;99.90;;;;;;4974707;28;20172;-65
2023/02/19 06:39:49;;;;;;;0.47;0.47;;;9.30;99.90;;;;;;4973398;28;20206;-64
2023/02/19 06:42:15;;;;;;;0.50;0.50;;;9.30;99.90;;;;;;4974701;28;20171;-62
2023/02/19 06:44:41;;;;;;;0.40;0.33;;;9.40;99.90;;;;;;4970926;28;20567;-63
2023/02/19 06:47:06;;;;;;;0.40;0.30;;;9.40;99.90;;;;;;4968807;28;20180;-62
2023/02/19 06:49:32;;;;;;;0.30;0.30;;;9.40;99.90;;;;;;4955319;29;20255;-65
2023/02/19 06:51:59;;;;;;;0.30;0.30;;;9.40;99.90;;;;;;4955212;29;20242;-64
2023/02/19 06:54:25;;;;;;;0.38;0.38;;;9.50;99.90;;;;;;4954558;28;20682;-68
2023/02/19 06:56:51;;;;;;;0.40;0.40;;;9.50;99.90;;;;;;4955335;28;20179;-63
2023/02/19 06:59:17;;;;;;;0.40;0.40;;;9.50;99.90;;;;;;4955331;29;20563;-64
2023/02/19 07:01:44;;;;;;;0.80;0.80;;;9.60;99.90;;;;;;4955298;29;20414;-65
2023/02/19 07:04:10;;;;;;;0.60;0.60;;;9.60;99.90;;;;;;4954593;28;20196;-64
2023/02/19 07:06:36;;;;;;;0.50;0.50;;;9.60;99.90;;;;;;4955020;28;20287;-65
2023/02/19 07:09:03;;;;;;;4.90;3.22;;;9.60;99.90;;;;;;4955283;28;20427;-65
2023/02/19 07:11:31;;;;;;;2.78;1.58;;;9.70;99.90;;;;;;4954980;28;20228;-63
2023/02/19 07:13:59;;;;;;;2.25;1.67;;;9.70;99.90;;;;;;4957922;28;20195;-64
2023/02/19 07:16:25;;;;;;;0.82;0.82;;;9.70;99.90;;;;;;4959195;28;20202;-64
2023/02/19 07:18:51;;;;;;;1.80;1.20;;;9.80;99.90;;;;;;4959040;28;20180;-63
2023/02/19 07:21:17;;;;;;;5.20;2.30;;;9.80;99.90;;;;;;4958844;28;20407;-63
2023/02/19 07:23:44;;;;;;;4.03;0.80;;;9.80;99.90;;;;;;4958329;28;20412;-64
2023/02/19 07:26:11;;;;;;;0.63;0.63;;;9.80;99.90;;;;;;4958735;28;20296;-62
2023/02/19 07:28:39;;;;;;;0.55;0.55;;;9.80;99.90;;;;;;4958766;28;20173;-63
2023/02/19 07:31:04;;;;;;;1.20;1.10;;;9.90;99.90;;;;;;4958701;28;20169;-65
2023/02/19 07:33:30;;;;;;;0.50;0.50;;;9.90;99.90;;;;;;4958115;29;20200;-65
2023/02/19 07:35:56;;;;;;;1.83;1.00;;;9.90;99.90;;;;;;4958547;29;20228;-64
2023/02/19 07:38:23;;;;;;;0.73;0.73;;;10.00;99.90;;;;;;4958674;28;20260;-66
2023/02/19 07:40:56;;;;;;;0.93;0.88;;;10.00;99.90;;;;;;4957569;29;20237;-65
2023/02/19 07:43:23;;;;;;;0.73;0.73;;;10.10;99.90;;;;;;4958256;28;20169;-65
2023/02/19 07:45:49;;;;;;;1.48;0.75;;;10.10;99.90;;;;;;4958517;28;20203;-66
2023/02/19 07:48:15;;;;;;;0.93;0.83;;;10.10;99.90;;;;;;4958174;28;20531;-67
2023/02/19 07:50:41;;;;;;;0.50;0.50;;;10.10;99.90;;;;;;4964099;28;20188;-65
2023/02/19 07:53:07;;;;;;;0.50;0.50;;;10.20;99.90;;;;;;4975960;28;20204;-64
2023/02/19 07:55:32;;;;;;;0.80;0.80;;;10.20;99.90;;;;;;4977704;28;20245;-65
2023/02/19 07:57:59;;;;;;;0.50;0.50;;;10.30;99.90;;;;;;4977406;28;20173;-65
2023/02/19 08:00:25;;;;;;;0.75;0.75;;;10.30;99.90;;;;;;4976668;28;20423;-64
2023/02/19 08:03:01;;;;;;;1.00;0.90;;;10.30;99.90;;;;;;4963394;28;20226;-65
2023/02/19 08:05:39;;;;;;;0.73;0.73;;;10.30;99.90;;;;;;4959549;28;20435;-64
2023/02/19 08:08:09;;;;;;;0.68;0.68;;;10.30;99.90;;;;;;4976914;28;20279;-63
2023/02/19 08:13:21;;;;;;;0.90;0.90;;;10.40;99.90;;;;;;4976045;28;20288;-62
2023/02/19 08:16:02;;;;;;;0.88;0.88;;;10.40;99.90;;;;;;4976164;28;20276;-64
2023/02/19 08:18:31;;;;;;;0.80;0.80;;;10.40;99.90;;;;;;4975420;28;20311;-63
